Aérodrome :
LOGIN :

S'inscrire | Disclaimer

   EN    FR    IT 

 










Légende :    VFR   VFR Marginal   IFR   IFR Intensif   IFR Très Intensif
Visi : 
Plafond : 
>= 8 km
>= 3000ft
5 à 8 km
1000 à 3000 ft
1500m à 5 km
500 à 1000 ft
800 à 1500m
200 à 500 ft
< 800m
< 200 ft
Symboles :   Orages  Brouillard  Fortes neiges  Fortes précipitations  Vent > 20 kt
SIGMETs :   Divers  Orages  Givrage  Turbulence  Onde Orograph.  Cendres Volcan.







- Altitude de l'aérodrome : 200 ft


EBBL - Klein Brogel AB

DERNIER METAR :
  • 242025Z AUTO 35006KT 9999 OVC028/// 16/10 Q1024 BLU

METARs EXPIRÉS :
  • 241955Z AUTO 35007KT 9999 OVC028/// 17/10 Q1023 BLU
  • 241925Z AUTO 34006KT 9999 OVC035/// 17/10 Q1023 BLU
  • 241855Z AUTO 34006KT 9999 OVC051/// 17/10 Q1023 BLU
  • 241825Z AUTO 34006KT 9999 BKN057/// 18/10 Q1023 BLU
  • 241755Z AUTO 35007KT 9999 BKN044/// 18/11 Q1023 BLU

Prévision TAF périmée.
Pas de NOTAMs connus pour ce terrain.



MET'MAP, la Météo Aéronautique d'un coup d'oeil ! - Copyright ORBIFLY Décembre 2007 - Disclaimer

ORBIFLY MET'MAP TEAM :

Programmation & Développement : Alexandra Zaïnal
Conception & Développement : Baudouin d'Aumeries
Co-Programmation & Développement : Marc-Olivier Méhu
Soutien technique & logistique : Manuel Goepfert

Contact : metmap@orbifly.com




SOURCES & CREDITS :

   NOAA